Time;durP1;ratioP1;P1;durP2;ratioP2;P2;SDS_P1;SDS_P2;PMS_P1;PMS_P2;Temp;Humidity;BMP_temperature;BMP_pressure;BME280_temperature;BME280_humidity;BME280_pressure;Samples;Min_cycle;Max_cycle;Signal;HPM_P1;HPM_P2
2022/08/13 00:00:59;;;;;;;;;;;21.50;59.80;;;;;;4984853;28;19969;-78
2022/08/13 00:03:28;;;;;;;;;;;21.50;59.90;;;;;;4972882;28;19910;-77
2022/08/13 00:05:54;;;;;;;;;;;21.40;59.90;;;;;;4986038;28;19988;-77
2022/08/13 00:08:25;;;;;;;;;;;21.40;60.00;;;;;;4983374;28;19949;-77
2022/08/13 00:10:52;;;;;;;;;;;21.40;60.00;;;;;;4982523;28;19932;-77
2022/08/13 00:13:18;;;;;;;;;;;21.30;60.00;;;;;;4984222;28;20003;-78
2022/08/13 00:15:47;;;;;;;;;;;21.30;60.10;;;;;;4982133;28;19929;-76
2022/08/13 00:18:16;;;;;;;;;;;21.30;60.20;;;;;;4980057;28;19965;-77
2022/08/13 00:20:45;;;;;;;;;;;21.30;60.20;;;;;;4984627;28;19992;-76
2022/08/13 00:23:14;;;;;;;;;;;21.30;60.30;;;;;;4983304;28;19933;-76
2022/08/13 00:25:41;;;;;;;;;;;21.30;60.50;;;;;;4966743;28;19976;-76
2022/08/13 00:28:07;;;;;;;;;;;21.20;60.40;;;;;;4983497;28;19953;-77
2022/08/13 00:30:36;;;;;;;;;;;21.20;60.50;;;;;;4966625;28;19934;-76
2022/08/13 00:33:05;;;;;;;;;;;21.20;60.60;;;;;;4983113;28;21039;-77
2022/08/13 00:35:35;;;;;;;;;;;21.20;60.70;;;;;;4977589;28;19941;-76
2022/08/13 00:38:02;;;;;;;;;;;21.10;60.70;;;;;;4983325;28;19932;-76
2022/08/13 00:40:29;;;;;;;;;;;21.10;60.80;;;;;;4982629;28;20012;-76
2022/08/13 00:42:58;;;;;;;;;;;21.10;60.90;;;;;;4984150;28;19926;-76
2022/08/13 00:45:25;;;;;;;;;;;21.10;61.00;;;;;;4981809;28;19932;-77
2022/08/13 00:50:38;;;;;;;;;;;21.00;61.10;;;;;;4967748;28;19922;-77
2022/08/13 00:53:05;;;;;;;;;;;21.00;61.20;;;;;;4967372;28;19929;-76
2022/08/13 00:55:31;;;;;;;;;;;20.90;61.20;;;;;;4965852;28;21859;-77
2022/08/13 00:57:59;;;;;;;;;;;20.90;61.10;;;;;;4983979;28;19965;-77
2022/08/13 01:00:26;;;;;;;;;;;20.90;61.20;;;;;;4982080;28;20392;-76
2022/08/13 01:02:54;;;;;;;;;;;20.90;61.30;;;;;;4980420;28;20012;-77
2022/08/13 01:05:23;;;;;;;;;;;20.80;61.30;;;;;;4983538;28;19932;-78
2022/08/13 01:07:51;;;;;;;;;;;20.80;61.30;;;;;;4982410;28;19929;-77
2022/08/13 01:10:19;;;;;;;;;;;20.80;61.40;;;;;;4979916;28;19926;-77
2022/08/13 01:12:50;;;;;;;;;;;20.80;61.40;;;;;;4983710;28;19933;-77
2022/08/13 01:15:17;;;;;;;;;;;20.80;61.40;;;;;;4983100;28;19933;-77
2022/08/13 01:17:46;;;;;;;;;;;20.80;61.60;;;;;;4981994;28;20025;-77
2022/08/13 01:20:20;;;;;;;;;;;20.80;61.60;;;;;;4978213;28;19956;-77
2022/08/13 01:22:49;;;;;;;;;;;20.70;61.70;;;;;;4985070;28;19925;-77
2022/08/13 01:25:16;;;;;;;;;;;20.70;61.80;;;;;;4988269;28;19985;-78
2022/08/13 01:27:44;;;;;;;;;;;20.70;61.80;;;;;;4984115;28;19926;-77
2022/08/13 01:30:14;;;;;;;;;;;20.70;61.80;;;;;;4985705;28;19929;-77
2022/08/13 01:32:41;;;;;;;;;;;20.60;61.80;;;;;;4986107;28;19945;-77
2022/08/13 01:35:08;;;;;;;;;;;20.60;61.80;;;;;;4984605;28;19934;-78
2022/08/13 01:37:37;;;;;;;;;;;20.60;61.70;;;;;;4984508;28;20524;-77
2022/08/13 01:40:06;;;;;;;;;;;20.60;61.90;;;;;;4984222;28;20192;-77
2022/08/13 01:42:37;;;;;;;;;;;20.50;61.80;;;;;;4988800;28;20399;-76
2022/08/13 01:45:04;;;;;;;;;;;20.50;62.60;;;;;;4981698;28;20451;-77
2022/08/13 01:50:31;;;;;;;;;;;20.50;62.00;;;;;;4982139;28;20304;-77
2022/08/13 01:53:01;;;;;;;;;;;20.50;62.10;;;;;;4985102;28;19961;-77
2022/08/13 01:55:37;;;;;;;;;;;20.50;62.10;;;;;;4984131;28;19926;-77
2022/08/13 02:01:05;;;;;;;;;;;20.40;62.20;;;;;;5011970;23;19933;-78
2022/08/13 02:03:32;;;;;;;;;;;20.40;62.20;;;;;;5007152;23;19934;-77
2022/08/13 02:06:00;;;;;;;;;;;20.40;62.30;;;;;;5010209;23;20428;-78
2022/08/13 02:13:26;;;;;;;;;;;20.30;62.40;;;;;;4909815;29;20278;-77
2022/08/13 02:15:53;;;;;;;;;;;20.30;62.50;;;;;;4922699;29;19927;-77
2022/08/13 02:18:21;;;;;;;;;;;20.30;62.60;;;;;;4920752;29;19926;-77
2022/08/13 02:20:48;;;;;;;;;;;20.30;62.60;;;;;;4926462;29;19942;-77
2022/08/13 02:23:19;;;;;;;;;;;20.20;62.60;;;;;;4926694;29;20014;-77
2022/08/13 02:25:46;;;;;;;;;;;20.20;62.70;;;;;;4925395;29;20405;-77
2022/08/13 02:28:14;;;;;;;;;;;20.20;62.90;;;;;;4924621;29;19962;-78
2022/08/13 02:30:43;;;;;;;;;;;20.20;62.90;;;;;;4920080;29;19934;-78
2022/08/13 02:33:10;;;;;;;;;;;20.10;62.80;;;;;;4925379;28;20031;-77
2022/08/13 02:35:37;;;;;;;;;;;20.10;62.80;;;;;;4926762;29;21097;-77
2022/08/13 02:38:05;;;;;;;;;;;20.10;63.00;;;;;;4924282;29;19973;-77
2022/08/13 02:43:16;;;;;;;;;;;20.10;63.10;;;;;;4939243;28;19927;-77
2022/08/13 02:45:45;;;;;;;;;;;20.00;63.00;;;;;;4921122;29;20368;-76
2022/08/13 02:48:12;;;;;;;;;;;20.00;63.10;;;;;;4909193;29;19962;-77
2022/08/13 02:50:42;;;;;;;;;;;20.00;63.20;;;;;;4923693;29;20942;-76
2022/08/13 02:53:09;;;;;;;;;;;20.00;63.30;;;;;;4922799;29;19982;-77
2022/08/13 02:55:36;;;;;;;;;;;19.90;63.30;;;;;;4922883;29;19927;-77
2022/08/13 02:58:04;;;;;;;;;;;19.90;63.40;;;;;;4926871;29;20152;-77
2022/08/13 03:00:31;;;;;;;;;;;19.90;63.40;;;;;;4925865;29;19935;-78
2022/08/13 03:03:00;;;;;;;;;;;19.90;63.50;;;;;;4923921;29;19935;-78
2022/08/13 03:05:30;;;;;;;;;;;19.90;63.60;;;;;;4923016;29;20122;-77
2022/08/13 03:07:57;;;;;;;;;;;19.90;63.60;;;;;;4925682;29;20235;-77
2022/08/13 03:10:26;;;;;;;;;;;19.80;63.50;;;;;;4925373;29;19927;-77
2022/08/13 03:12:58;;;;;;;;;;;19.80;63.60;;;;;;4919387;29;19943;-78
2022/08/13 03:15:26;;;;;;;;;;;19.80;64.30;;;;;;4920010;29;19927;-77
2022/08/13 03:17:53;;;;;;;;;;;19.80;63.70;;;;;;4924535;29;21467;-78
2022/08/13 03:20:21;;;;;;;;;;;19.80;63.80;;;;;;4924038;29;20167;-77
2022/08/13 03:22:48;;;;;;;;;;;19.80;63.90;;;;;;4923661;29;20393;-77
2022/08/13 03:25:16;;;;;;;;;;;19.70;63.80;;;;;;4937727;28;20014;-77
2022/08/13 03:27:42;;;;;;;;;;;19.70;63.90;;;;;;4919087;29;19935;-78
2022/08/13 03:30:11;;;;;;;;;;;19.70;63.80;;;;;;4907638;29;19931;-78
2022/08/13 03:32:40;;;;;;;;;;;19.70;63.90;;;;;;4927046;29;19926;-77
2022/08/13 03:35:09;;;;;;;;;;;19.70;64.10;;;;;;4926193;29;20316;-78
2022/08/13 03:37:37;;;;;;;;;;;19.70;64.00;;;;;;4936053;28;19930;-77
2022/08/13 03:40:05;;;;;;;;;;;19.60;64.00;;;;;;4927726;29;19977;-79
2022/08/13 03:42:32;;;;;;;;;;;19.60;64.00;;;;;;4926033;29;20552;-77
2022/08/13 03:45:00;;;;;;;;;;;19.60;64.10;;;;;;4908512;29;19966;-77
2022/08/13 03:47:27;;;;;;;;;;;19.60;64.00;;;;;;4903951;29;19931;-77
2022/08/13 03:49:54;;;;;;;;;;;19.50;64.00;;;;;;4927681;29;20356;-78
2022/08/13 03:52:20;;;;;;;;;;;19.50;64.00;;;;;;4928081;29;20016;-77
2022/08/13 03:54:49;;;;;;;;;;;19.50;64.00;;;;;;4921577;29;19982;-79
2022/08/13 03:57:19;;;;;;;;;;;19.50;64.20;;;;;;4926527;29;19954;-77
2022/08/13 03:59:46;;;;;;;;;;;19.50;64.10;;;;;;4924373;29;19941;-77
2022/08/13 04:02:15;;;;;;;;;;;19.40;64.10;;;;;;4923763;29;19974;-78
2022/08/13 04:04:42;;;;;;;;;;;19.40;64.10;;;;;;4925436;29;19927;-79
2022/08/13 04:07:09;;;;;;;;;;;19.40;64.00;;;;;;4913400;29;19935;-77
2022/08/13 04:09:36;;;;;;;;;;;19.40;64.20;;;;;;4908122;29;19927;-77
2022/08/13 04:12:09;;;;;;;;;;;19.40;64.20;;;;;;4924879;29;19957;-77
2022/08/13 04:14:39;;;;;;;;;;;19.30;64.10;;;;;;4922194;29;20218;-77
2022/08/13 04:17:10;;;;;;;;;;;19.30;64.10;;;;;;4926401;29;19938;-78
2022/08/13 04:19:37;;;;;;;;;;;19.30;64.20;;;;;;4921979;29;19933;-77
2022/08/13 04:22:04;;;;;;;;;;;19.30;64.20;;;;;;4928071;29;20026;-77
2022/08/13 04:24:33;;;;;;;;;;;19.20;64.20;;;;;;4922189;29;19931;-76
2022/08/13 04:27:00;;;;;;;;;;;19.20;64.10;;;;;;4918588;29;20345;-76
2022/08/13 04:29:28;;;;;;;;;;;19.20;64.20;;;;;;4921690;29;20296;-77
2022/08/13 04:31:55;;;;;;;;;;;19.20;64.20;;;;;;4924662;29;20022;-77
2022/08/13 04:34:22;;;;;;;;;;;19.10;64.20;;;;;;4922408;29;20516;-77
2022/08/13 04:36:49;;;;;;;;;;;19.10;64.30;;;;;;4919306;29;19993;-77
2022/08/13 04:39:16;;;;;;;;;;;19.10;64.30;;;;;;4926440;29;20025;-77
2022/08/13 04:41:43;;;;;;;;;;;19.10;64.40;;;;;;4924497;29;20461;-76
2022/08/13 04:44:10;;;;;;;;;;;19.10;64.40;;;;;;4904150;29;19935;-78
2022/08/13 04:46:39;;;;;;;;;;;19.00;64.40;;;;;;4926119;29;20006;-78
2022/08/13 04:49:06;;;;;;;;;;;19.00;64.40;;;;;;4928383;29;20480;-78
2022/08/13 04:51:34;;;;;;;;;;;19.00;64.50;;;;;;4926488;29;19974;-78
2022/08/13 04:54:01;;;;;;;;;;;19.00;64.50;;;;;;4933054;29;19966;-78
2022/08/13 04:56:27;;;;;;;;;;;19.00;64.60;;;;;;4928892;29;19931;-78
2022/08/13 04:58:54;;;;;;;;;;;18.90;64.40;;;;;;4929295;29;20476;-78
2022/08/13 05:01:21;;;;;;;;;;;18.90;65.20;;;;;;4934846;29;20385;-78
2022/08/13 05:03:51;;;;;;;;;;;18.90;64.70;;;;;;4917693;29;19935;-79
2022/08/13 05:06:18;;;;;;;;;;;18.90;64.70;;;;;;4945695;28;19930;-79
2022/08/13 05:08:45;;;;;;;;;;;18.90;64.80;;;;;;4930142;29;20448;-78
2022/08/13 05:11:12;;;;;;;;;;;18.80;64.70;;;;;;4932462;29;20053;-78
2022/08/13 05:13:40;;;;;;;;;;;18.80;64.80;;;;;;4930667;29;19955;-78
2022/08/13 05:16:08;;;;;;;;;;;18.80;64.90;;;;;;4929952;29;20448;-78
2022/08/13 05:18:36;;;;;;;;;;;18.80;64.90;;;;;;4931443;29;20436;-78
2022/08/13 05:21:05;;;;;;;;;;;18.80;65.00;;;;;;4932084;29;19950;-78
2022/08/13 05:23:34;;;;;;;;;;;18.70;65.00;;;;;;4931437;29;19978;-78
2022/08/13 05:26:01;;;;;;;;;;;18.70;65.30;;;;;;4928609;29;20371;-77
2022/08/13 05:28:30;;;;;;;;;;;18.70;65.30;;;;;;4927835;29;19935;-78
2022/08/13 05:30:57;;;;;;;;;;;18.70;65.50;;;;;;4927809;29;19934;-78
2022/08/13 05:33:25;;;;;;;;;;;18.70;65.50;;;;;;4908046;29;20021;-78
2022/08/13 05:35:53;;;;;;;;;;;18.70;65.50;;;;;;4928227;29;19941;-78
2022/08/13 05:38:22;;;;;;;;;;;18.70;65.70;;;;;;4914478;29;19926;-78
2022/08/13 05:40:49;;;;;;;;;;;18.60;65.50;;;;;;4928952;29;20752;-77
2022/08/13 05:43:17;;;;;;;;;;;18.60;65.90;;;;;;4925199;29;20115;-78
2022/08/13 05:45:48;;;;;;;;;;;18.40;66.90;;;;;;4922943;29;19930;-78
2022/08/13 05:48:15;;;;;;;;;;;18.40;67.60;;;;;;4922393;29;20570;-78
2022/08/13 05:50:42;;;;;;;;;;;18.40;67.00;;;;;;4926479;29;19931;-78
2022/08/13 05:53:10;;;;;;;;;;;18.40;68.80;;;;;;4935135;29;20321;-78
2022/08/13 05:55:40;;;;;;;;;;;18.30;69.30;;;;;;4927932;29;19962;-78
2022/08/13 05:58:08;;;;;;;;;;;18.30;69.50;;;;;;4932002;29;19934;-78
2022/08/13 06:03:28;;;;;;;;;;;18.30;69.60;;;;;;4935700;29;19922;-78
2022/08/13 06:05:56;;;;;;;;;;;18.30;69.70;;;;;;4913903;29;19955;-78
2022/08/13 06:08:28;;;;;;;;;;;18.40;69.80;;;;;;4929288;29;19939;-78
2022/08/13 06:10:56;;;;;;;;;;;18.40;69.80;;;;;;4931066;29;19935;-78
2022/08/13 06:13:23;;;;;;;;;;;18.40;69.80;;;;;;4915553;29;19935;-78
2022/08/13 06:15:58;;;;;;;;;;;18.40;69.60;;;;;;4943112;28;20009;-78
2022/08/13 06:18:29;;;;;;;;;;;18.40;69.70;;;;;;4938059;28;20302;-78
2022/08/13 06:20:57;;;;;;;;;;;18.40;69.80;;;;;;4929249;29;20447;-75
2022/08/13 06:23:24;;;;;;;;;;;18.50;69.90;;;;;;4925511;29;19928;-77
2022/08/13 06:25:52;;;;;;;;;;;18.50;69.60;;;;;;4925582;29;19990;-75
2022/08/13 06:28:21;;;;;;;;;;;18.50;69.60;;;;;;4928326;29;19934;-75
2022/08/13 06:30:49;;;;;;;;;;;18.50;69.50;;;;;;4928741;29;20033;-75
2022/08/13 06:33:18;;;;;;;;;;;18.50;69.50;;;;;;4926751;29;19934;-75
2022/08/13 06:35:45;;;;;;;;;;;18.50;69.40;;;;;;4921106;29;20249;-75
2022/08/13 06:38:12;;;;;;;;;;;18.50;69.20;;;;;;4920687;29;19931;-75
2022/08/13 06:40:40;;;;;;;;;;;18.50;69.30;;;;;;4913167;29;20204;-74
2022/08/13 06:43:07;;;;;;;;;;;18.50;69.20;;;;;;4898113;29;19935;-74
2022/08/13 06:45:36;;;;;;;;;;;18.60;69.20;;;;;;4923353;29;19933;-74
2022/08/13 06:48:03;;;;;;;;;;;18.60;69.20;;;;;;4915262;29;20496;-76
2022/08/13 06:50:34;;;;;;;;;;;18.60;69.30;;;;;;4919494;29;19941;-75
2022/08/13 06:53:03;;;;;;;;;;;18.60;69.30;;;;;;4924685;29;19942;-74
2022/08/13 06:55:30;;;;;;;;;;;18.60;69.50;;;;;;4917913;29;20361;-75
2022/08/13 06:57:57;;;;;;;;;;;18.60;69.30;;;;;;4901732;29;20298;-75
2022/08/13 07:00:25;;;;;;;;;;;18.60;69.40;;;;;;4921458;29;19927;-75
2022/08/13 07:02:53;;;;;;;;;;;18.60;69.50;;;;;;4915964;29;19956;-76
2022/08/13 07:05:31;;;;;;;;;;;18.70;69.40;;;;;;4921305;29;19961;-75
2022/08/13 07:07:59;;;;;;;;;;;18.70;69.20;;;;;;4922520;29;19934;-79
2022/08/13 07:10:26;;;;;;;;;;;18.70;69.10;;;;;;4924539;29;19935;-75
2022/08/13 07:12:54;;;;;;;;;;;18.70;69.20;;;;;;4920053;29;19927;-76
2022/08/13 07:15:22;;;;;;;;;;;18.70;69.30;;;;;;4920240;29;20009;-76
2022/08/13 07:17:50;;;;;;;;;;;18.70;69.20;;;;;;4916294;29;20413;-75
2022/08/13 07:20:19;;;;;;;;;;;18.80;69.30;;;;;;4920648;29;20020;-75
2022/08/13 07:22:45;;;;;;;;;;;18.80;69.30;;;;;;4916219;29;19927;-75
2022/08/13 07:25:12;;;;;;;;;;;18.80;69.60;;;;;;4924395;29;19927;-75
2022/08/13 07:27:40;;;;;;;;;;;18.80;69.70;;;;;;4921128;29;19933;-74
2022/08/13 07:30:07;;;;;;;;;;;18.90;69.80;;;;;;4922557;29;19978;-75
2022/08/13 07:32:37;;;;;;;;;;;18.90;69.80;;;;;;4920479;29;20178;-74
2022/08/13 07:35:04;;;;;;;;;;;18.90;70.70;;;;;;4924828;29;19930;-75
2022/08/13 07:37:32;;;;;;;;;;;18.90;70.00;;;;;;4921165;29;19927;-76
2022/08/13 07:40:01;;;;;;;;;;;18.90;70.20;;;;;;4913517;29;19934;-77
2022/08/13 07:42:29;;;;;;;;;;;18.90;70.40;;;;;;4918224;29;20355;-75
2022/08/13 07:44:56;;;;;;;;;;;18.90;70.40;;;;;;4919623;29;19938;-75
2022/08/13 07:47:24;;;;;;;;;;;18.90;70.40;;;;;;4931143;28;20380;-75
2022/08/13 07:49:51;;;;;;;;;;;19.00;71.20;;;;;;4908815;29;20041;-75
2022/08/13 07:52:17;;;;;;;;;;;19.10;70.80;;;;;;4909321;29;19935;-74
2022/08/13 07:54:47;;;;;;;;;;;19.10;70.00;;;;;;4916057;29;20625;-75
2022/08/13 07:57:14;;;;;;;;;;;19.10;70.50;;;;;;4913379;29;19935;-75
2022/08/13 07:59:41;;;;;;;;;;;19.20;69.80;;;;;;4901312;29;19927;-74
2022/08/13 08:02:08;;;;;;;;;;;19.20;69.60;;;;;;5029662;22;19953;-76
2022/08/13 08:04:37;;;;;;;;;;;19.30;69.70;;;;;;4982302;28;19933;-75
2022/08/13 08:07:04;;;;;;;;;;;19.30;69.50;;;;;;4979983;28;20421;-75
2022/08/13 08:09:31;;;;;;;;;;;19.30;69.40;;;;;;4984966;28;19934;-75
2022/08/13 08:14:45;;;;;;;;;;;19.30;69.60;;;;;;4990337;28;20017;-76
2022/08/13 08:17:12;;;;;;;;;;;19.30;69.70;;;;;;4980742;28;19926;-75
2022/08/13 08:19:39;;;;;;;;;;;19.30;69.60;;;;;;4992663;28;19926;-75
2022/08/13 08:22:07;;;;;;;;;;;19.30;69.50;;;;;;4998976;28;19937;-75
2022/08/13 08:24:34;;;;;;;;;;;19.30;69.40;;;;;;5001480;28;19932;-74
2022/08/13 08:27:04;;;;;;;;;;;19.30;69.40;;;;;;5000369;28;20242;-76
2022/08/13 08:29:32;;;;;;;;;;;19.30;69.30;;;;;;4993851;28;19929;-75
2022/08/13 08:31:59;;;;;;;;;;;19.40;69.30;;;;;;4995437;28;19930;-75
2022/08/13 08:34:26;;;;;;;;;;;19.40;69.20;;;;;;4997276;28;20313;-76
2022/08/13 08:36:55;;;;;;;;;;;19.40;69.20;;;;;;4983120;28;19929;-76
2022/08/13 08:44:55;;;;;;;;;;;19.40;69.10;;;;;;4997958;28;19941;-75
2022/08/13 08:47:27;;;;;;;;;;;19.40;69.10;;;;;;4997157;28;20016;-73
2022/08/13 08:49:56;;;;;;;;;;;19.40;68.90;;;;;;4995468;28;19940;-75
2022/08/13 08:53:19;;;;;;;;;;;19.40;69.10;;;;;;4976751;28;19926;-75
2022/08/13 08:55:11;;;;;;;;;;;19.40;69.00;;;;;;4989605;28;19941;-74
2022/08/13 08:57:44;;;;;;;;;;;19.40;69.00;;;;;;4970436;28;20155;-77
2022/08/13 09:00:14;;;;;;;;;;;19.40;68.90;;;;;;4969728;28;19940;-74
2022/08/13 09:02:41;;;;;;;;;;;19.50;69.20;;;;;;4996144;28;19937;-76
2022/08/13 09:05:12;;;;;;;;;;;19.50;69.00;;;;;;4991476;28;19940;-76
2022/08/13 09:07:41;;;;;;;;;;;19.50;69.10;;;;;;4972344;28;20027;-76
2022/08/13 09:10:09;;;;;;;;;;;19.50;69.10;;;;;;4980234;28;19930;-76
2022/08/13 09:12:42;;;;;;;;;;;19.50;69.30;;;;;;4990666;28;19951;-75
2022/08/13 09:15:10;;;;;;;;;;;19.70;69.60;;;;;;4987478;28;19930;-74
2022/08/13 09:17:38;;;;;;;;;;;19.80;68.70;;;;;;4989558;28;19925;-75
2022/08/13 09:20:10;;;;;;;;;;;19.90;68.60;;;;;;4987927;28;19948;-75
2022/08/13 09:22:40;;;;;;;;;;;20.00;68.40;;;;;;4993999;28;19925;-75
2022/08/13 09:25:07;;;;;;;;;;;20.10;67.30;;;;;;4986700;28;19930;-75
2022/08/13 09:27:35;;;;;;;;;;;20.20;67.50;;;;;;4984319;28;20323;-75
2022/08/13 09:30:03;;;;;;;;;;;20.20;67.90;;;;;;4976782;28;19948;-74
2022/08/13 09:32:31;;;;;;;;;;;20.30;67.50;;;;;;4981887;28;19934;-76
2022/08/13 09:34:58;;;;;;;;;;;20.30;67.30;;;;;;4985387;28;20111;-74
2022/08/13 09:37:26;;;;;;;;;;;20.40;67.90;;;;;;4991776;28;20304;-74
2022/08/13 09:39:55;;;;;;;;;;;20.40;67.90;;;;;;4968897;28;20013;-73
2022/08/13 09:42:25;;;;;;;;;;;20.40;67.50;;;;;;4992783;28;20016;-74
2022/08/13 09:44:53;;;;;;;;;;;20.50;67.00;;;;;;4989075;28;19932;-74
2022/08/13 09:47:21;;;;;;;;;;;20.60;67.00;;;;;;5008280;28;19929;-75
2022/08/13 09:49:48;;;;;;;;;;;20.60;67.50;;;;;;4977634;28;19933;-73
2022/08/13 09:52:15;;;;;;;;;;;20.70;67.10;;;;;;4992865;28;19929;-75
2022/08/13 09:54:43;;;;;;;;;;;20.70;67.10;;;;;;4980297;28;19941;-74
2022/08/13 09:57:10;;;;;;;;;;;20.70;66.60;;;;;;4994995;28;19925;-74
2022/08/13 09:59:37;;;;;;;;;;;20.80;67.20;;;;;;4997000;28;19933;-74
2022/08/13 10:02:08;;;;;;;;;;;20.80;67.40;;;;;;5009908;28;19930;-74
2022/08/13 10:04:36;;;;;;;;;;;20.80;66.90;;;;;;5002116;28;20411;-75
2022/08/13 10:07:05;;;;;;;;;;;20.80;66.70;;;;;;4997900;28;19977;-75
2022/08/13 10:09:33;;;;;;;;;;;20.90;66.30;;;;;;5001320;28;21832;-75
2022/08/13 10:12:00;;;;;;;;;;;21.00;66.30;;;;;;4989869;28;20419;-74
2022/08/13 10:14:27;;;;;;;;;;;21.00;65.70;;;;;;4999458;28;20347;-75
2022/08/13 10:16:54;;;;;;;;;;;21.00;65.30;;;;;;4992071;28;19937;-74
2022/08/13 10:19:21;;;;;;;;;;;21.10;64.80;;;;;;4989464;28;19940;-76
2022/08/13 10:21:49;;;;;;;;;;;21.10;65.00;;;;;;4989012;28;19926;-75
2022/08/13 10:24:16;;;;;;;;;;;21.10;65.20;;;;;;5000705;28;20121;-76
2022/08/13 10:26:43;;;;;;;;;;;21.20;65.00;;;;;;4979147;28;19926;-75
2022/08/13 10:29:11;;;;;;;;;;;21.20;64.90;;;;;;4990559;28;19937;-74
2022/08/13 10:31:38;;;;;;;;;;;21.20;64.70;;;;;;4984253;28;19933;-75
2022/08/13 10:34:06;;;;;;;;;;;21.10;65.00;;;;;;4995495;28;20102;-75
2022/08/13 10:36:34;;;;;;;;;;;21.00;65.40;;;;;;4992283;28;19929;-75
2022/08/13 10:39:04;;;;;;;;;;;21.00;65.70;;;;;;4993582;28;19955;-75
2022/08/13 10:41:31;;;;;;;;;;;21.00;65.60;;;;;;4997614;28;19930;-76
2022/08/13 10:43:59;;;;;;;;;;;21.00;65.90;;;;;;4990923;28;19929;-74
2022/08/13 10:46:26;;;;;;;;;;;20.90;65.80;;;;;;4995002;28;19929;-75
2022/08/13 10:48:55;;;;;;;;;;;20.90;65.80;;;;;;4961928;28;19940;-75
2022/08/13 10:51:22;;;;;;;;;;;20.90;65.80;;;;;;4976537;28;19933;-75
2022/08/13 10:53:59;;;;;;;;;;;20.90;65.80;;;;;;4988179;28;19933;-74
2022/08/13 10:56:28;;;;;;;;;;;20.90;65.70;;;;;;4985927;28;19995;-75
2022/08/13 10:58:56;;;;;;;;;;;21.00;65.50;;;;;;4987607;28;19933;-76
2022/08/13 11:01:24;;;;;;;;;;;21.00;65.20;;;;;;4996482;28;20020;-76
2022/08/13 11:03:52;;;;;;;;;;;21.00;65.10;;;;;;4992932;28;19929;-75
2022/08/13 11:06:19;;;;;;;;;;;21.00;65.00;;;;;;4999114;28;19933;-76
2022/08/13 11:08:47;;;;;;;;;;;21.00;64.90;;;;;;4990670;28;19973;-75
2022/08/13 11:11:14;;;;;;;;;;;21.00;65.00;;;;;;4986431;28;20376;-76
2022/08/13 11:13:42;;;;;;;;;;;21.00;65.00;;;;;;4996826;28;19936;-75
2022/08/13 11:16:56;;;;;;;;;;;21.00;65.30;;;;;;4983461;28;19976;-76
2022/08/13 11:18:59;;;;;;;;;;;21.00;65.20;;;;;;4987363;28;19930;-76
2022/08/13 11:21:26;;;;;;;;;;;21.00;65.30;;;;;;4986002;28;19941;-75
2022/08/13 11:23:53;;;;;;;;;;;21.00;65.40;;;;;;4978686;28;19972;-76
2022/08/13 11:26:21;;;;;;;;;;;21.00;65.40;;;;;;4981960;28;20370;-75
2022/08/13 11:28:49;;;;;;;;;;;21.00;65.30;;;;;;4992838;28;19926;-75
2022/08/13 11:31:16;;;;;;;;;;;21.00;66.00;;;;;;4986917;28;19933;-73
2022/08/13 11:33:43;;;;;;;;;;;21.00;65.50;;;;;;4992121;28;19925;-72
2022/08/13 11:36:10;;;;;;;;;;;21.10;65.40;;;;;;4997122;28;20051;-75
2022/08/13 11:38:37;;;;;;;;;;;21.10;65.40;;;;;;4997258;28;21000;-74
2022/08/13 11:41:04;;;;;;;;;;;21.10;65.60;;;;;;4982481;28;19925;-75
2022/08/13 11:43:31;;;;;;;;;;;21.10;65.80;;;;;;4995301;28;19980;-76
2022/08/13 11:46:00;;;;;;;;;;;21.10;65.90;;;;;;4994522;28;19972;-75
2022/08/13 11:48:27;;;;;;;;;;;21.10;65.70;;;;;;4993158;28;19937;-76
2022/08/13 11:50:55;;;;;;;;;;;21.10;65.80;;;;;;4972402;28;20509;-77
2022/08/13 11:53:22;;;;;;;;;;;21.10;65.80;;;;;;4995114;28;19937;-76
2022/08/13 11:55:49;;;;;;;;;;;21.10;65.80;;;;;;4985556;28;20019;-75
2022/08/13 11:58:16;;;;;;;;;;;21.20;65.80;;;;;;4998785;28;19926;-75
2022/08/13 12:00:43;;;;;;;;;;;21.20;65.70;;;;;;4997167;28;19932;-75
2022/08/13 12:03:11;;;;;;;;;;;21.20;65.60;;;;;;4985993;28;19975;-76
2022/08/13 12:05:38;;;;;;;;;;;21.20;65.40;;;;;;4973887;28;20412;-76
2022/08/13 12:08:13;;;;;;;;;;;21.30;65.50;;;;;;4998143;28;19932;-76
2022/08/13 12:10:39;;;;;;;;;;;21.30;65.50;;;;;;4995334;28;19937;-75
2022/08/13 12:13:06;;;;;;;;;;;21.30;65.50;;;;;;4994488;28;20177;-76
2022/08/13 12:15:33;;;;;;;;;;;21.30;65.60;;;;;;4975409;28;19925;-75
2022/08/13 12:18:00;;;;;;;;;;;21.30;65.60;;;;;;4992404;28;19925;-74
2022/08/13 12:20:28;;;;;;;;;;;21.30;65.60;;;;;;4987444;28;19925;-76
2022/08/13 12:22:56;;;;;;;;;;;21.30;65.30;;;;;;4995167;28;19930;-75
2022/08/13 12:25:25;;;;;;;;;;;21.40;65.30;;;;;;4991514;28;19929;-74
2022/08/13 12:28:06;;;;;;;;;;;21.40;65.10;;;;;;4982577;28;20019;-74
2022/08/13 12:30:33;;;;;;;;;;;21.40;65.00;;;;;;4991949;28;19945;-75
2022/08/13 12:33:00;;;;;;;;;;;21.40;65.10;;;;;;4983905;28;19930;-75
2022/08/13 12:35:27;;;;;;;;;;;21.50;65.20;;;;;;4980855;28;19949;-76
2022/08/13 12:37:57;;;;;;;;;;;21.50;65.10;;;;;;4979553;28;19934;-75
2022/08/13 12:40:24;;;;;;;;;;;21.50;64.10;;;;;;4981256;28;20031;-75
2022/08/13 12:42:51;;;;;;;;;;;21.80;62.60;;;;;;4985289;28;20024;-76
2022/08/13 12:45:18;;;;;;;;;;;21.90;61.80;;;;;;4979878;28;20072;-74
2022/08/13 12:47:45;;;;;;;;;;;22.00;62.00;;;;;;4987783;28;19929;-75
2022/08/13 12:50:12;;;;;;;;;;;22.20;62.30;;;;;;4994501;28;19930;-74
2022/08/13 12:52:39;;;;;;;;;;;22.40;61.80;;;;;;5004218;28;19940;-75
2022/08/13 12:55:08;;;;;;;;;;;22.50;60.80;;;;;;4978986;28;19930;-75
2022/08/13 12:57:35;;;;;;;;;;;22.50;60.10;;;;;;4986307;28;19937;-76
2022/08/13 13:00:02;;;;;;;;;;;22.50;60.50;;;;;;4990821;28;19934;-75
2022/08/13 13:02:29;;;;;;;;;;;22.50;60.70;;;;;;4988395;28;20024;-76
2022/08/13 13:04:56;;;;;;;;;;;22.50;60.90;;;;;;4986043;28;20023;-76
2022/08/13 13:07:23;;;;;;;;;;;22.50;61.70;;;;;;5000155;28;19926;-76
2022/08/13 13:09:50;;;;;;;;;;;22.50;62.70;;;;;;4999451;28;19934;-76
2022/08/13 13:12:18;;;;;;;;;;;22.50;63.40;;;;;;5003242;28;20024;-77
2022/08/13 13:14:45;;;;;;;;;;;22.40;63.40;;;;;;5004138;28;20237;-76
2022/08/13 13:17:12;;;;;;;;;;;22.50;63.10;;;;;;4987095;28;19945;-77
2022/08/13 13:19:39;;;;;;;;;;;22.50;63.30;;;;;;4999753;28;19957;-76
2022/08/13 13:22:06;;;;;;;;;;;22.50;62.40;;;;;;5001738;28;20030;-76
2022/08/13 13:24:33;;;;;;;;;;;22.60;61.50;;;;;;5014885;28;19929;-77
2022/08/13 13:27:00;;;;;;;;;;;22.70;60.60;;;;;;4993367;28;20038;-74
2022/08/13 13:29:28;;;;;;;;;;;22.90;60.00;;;;;;4982250;28;20012;-76
2022/08/13 13:31:55;;;;;;;;;;;22.90;58.30;;;;;;4987703;28;19933;-77
2022/08/13 13:34:22;;;;;;;;;;;23.00;58.50;;;;;;4987903;28;19926;-77
2022/08/13 13:36:49;;;;;;;;;;;23.10;59.50;;;;;;4984249;28;19996;-76
2022/08/13 13:39:16;;;;;;;;;;;23.00;60.70;;;;;;5010136;28;19925;-75
2022/08/13 13:41:43;;;;;;;;;;;23.00;61.30;;;;;;5004691;28;20366;-76
2022/08/13 13:44:10;;;;;;;;;;;23.00;61.70;;;;;;5005706;28;19932;-76
2022/08/13 13:46:38;;;;;;;;;;;23.00;62.10;;;;;;5008000;28;19929;-75
2022/08/13 13:49:05;;;;;;;;;;;23.10;62.50;;;;;;5003335;28;20012;-77
2022/08/13 13:51:32;;;;;;;;;;;23.10;62.70;;;;;;5009735;28;20387;-77
2022/08/13 13:53:59;;;;;;;;;;;23.10;62.70;;;;;;4990401;28;20300;-77
2022/08/13 13:56:26;;;;;;;;;;;23.10;62.80;;;;;;5002737;28;19925;-76
2022/08/13 13:58:53;;;;;;;;;;;23.20;63.00;;;;;;5003217;28;19977;-77
2022/08/13 14:01:20;;;;;;;;;;;23.20;63.20;;;;;;5009028;28;19949;-75
2022/08/13 14:03:49;;;;;;;;;;;23.20;63.10;;;;;;5006474;28;19926;-77
2022/08/13 14:06:18;;;;;;;;;;;23.30;63.30;;;;;;4984618;28;19937;-76
2022/08/13 14:08:49;;;;;;;;;;;23.30;61.80;;;;;;5011769;28;19926;-76
2022/08/13 14:11:16;;;;;;;;;;;23.40;61.90;;;;;;5002123;28;20231;-77
2022/08/13 14:13:43;;;;;;;;;;;23.40;61.80;;;;;;5011544;28;19926;-75
2022/08/13 14:16:10;;;;;;;;;;;23.40;61.80;;;;;;5001824;28;19926;-77
2022/08/13 14:18:38;;;;;;;;;;;23.50;62.00;;;;;;5007537;28;19926;-76
2022/08/13 14:21:07;;;;;;;;;;;23.50;62.20;;;;;;5004848;28;19925;-76
2022/08/13 14:23:36;;;;;;;;;;;23.50;62.40;;;;;;5009820;28;19934;-77
2022/08/13 14:26:04;;;;;;;;;;;23.50;62.50;;;;;;5007322;28;20495;-77
2022/08/13 14:28:31;;;;;;;;;;;23.60;62.80;;;;;;5007032;28;19948;-76
2022/08/13 14:30:59;;;;;;;;;;;23.70;62.60;;;;;;5002243;28;19929;-76
2022/08/13 14:33:27;;;;;;;;;;;23.70;62.30;;;;;;5004331;28;19925;-76
2022/08/13 14:35:54;;;;;;;;;;;23.70;62.40;;;;;;5003305;28;19926;-77
2022/08/13 14:38:22;;;;;;;;;;;23.70;62.40;;;;;;5009260;28;20449;-76
2022/08/13 14:40:49;;;;;;;;;;;23.80;62.60;;;;;;4999523;28;19929;-76
2022/08/13 14:43:17;;;;;;;;;;;23.80;62.20;;;;;;5008108;28;19925;-77
2022/08/13 14:45:44;;;;;;;;;;;23.90;61.70;;;;;;4986618;28;20028;-77
2022/08/13 14:48:12;;;;;;;;;;;23.90;61.80;;;;;;5008495;28;19932;-76